sensor_id;sensor_type;location;lat;lon;timestamp;P1;durP1;ratioP1;P2;durP2;ratioP2
67227;SDS011;54139;42.616;23.748;2023-04-21T00:02:21;17.55;;;15.60;;
67227;SDS011;54139;42.616;23.748;2023-04-21T00:04:46;17.20;;;15.60;;
67227;SDS011;54139;42.616;23.748;2023-04-21T00:07:13;17.73;;;15.85;;
67227;SDS011;54139;42.616;23.748;2023-04-21T00:09:40;16.65;;;14.85;;
67227;SDS011;54139;42.616;23.748;2023-04-21T00:12:05;17.38;;;15.38;;
67227;SDS011;54139;42.616;23.748;2023-04-21T00:14:31;16.40;;;14.65;;
67227;SDS011;54139;42.616;23.748;2023-04-21T00:16:56;20.77;;;15.40;;
67227;SDS011;54139;42.616;23.748;2023-04-21T00:21:52;18.55;;;15.80;;
67227;SDS011;54139;42.616;23.748;2023-04-21T00:24:22;22.88;;;16.77;;
67227;SDS011;54139;42.616;23.748;2023-04-21T00:26:48;19.33;;;17.25;;
67227;SDS011;54139;42.616;23.748;2023-04-21T00:29:13;18.20;;;16.50;;
67227;SDS011;54139;42.616;23.748;2023-04-21T00:31:38;17.65;;;15.77;;
67227;SDS011;54139;42.616;23.748;2023-04-21T00:34:06;16.75;;;14.80;;
67227;SDS011;54139;42.616;23.748;2023-04-21T00:36:31;16.33;;;14.68;;
67227;SDS011;54139;42.616;23.748;2023-04-21T00:38:57;19.63;;;15.93;;
67227;SDS011;54139;42.616;23.748;2023-04-21T00:41:23;16.52;;;14.88;;
67227;SDS011;54139;42.616;23.748;2023-04-21T00:43:59;18.75;;;16.75;;
67227;SDS011;54139;42.616;23.748;2023-04-21T00:46:24;18.13;;;16.08;;
67227;SDS011;54139;42.616;23.748;2023-04-21T00:48:50;22.33;;;17.70;;
67227;SDS011;54139;42.616;23.748;2023-04-21T00:51:16;23.63;;;18.05;;
67227;SDS011;54139;42.616;23.748;2023-04-21T00:53:41;19.67;;;17.38;;
67227;SDS011;54139;42.616;23.748;2023-04-21T00:56:07;25.20;;;18.25;;
67227;SDS011;54139;42.616;23.748;2023-04-21T00:58:32;20.73;;;18.05;;
67227;SDS011;54139;42.616;23.748;2023-04-21T01:00:59;20.05;;;17.75;;
67227;SDS011;54139;42.616;23.748;2023-04-21T01:03:26;21.00;;;16.92;;
67227;SDS011;54139;42.616;23.748;2023-04-21T01:05:52;21.05;;;16.60;;
67227;SDS011;54139;42.616;23.748;2023-04-21T01:08:18;23.27;;;19.92;;
67227;SDS011;54139;42.616;23.748;2023-04-21T01:10:44;24.25;;;18.67;;
67227;SDS011;54139;42.616;23.748;2023-04-21T01:13:10;19.02;;;17.02;;
67227;SDS011;54139;42.616;23.748;2023-04-21T01:15:36;24.45;;;18.17;;
67227;SDS011;54139;42.616;23.748;2023-04-21T01:18:01;17.92;;;15.73;;
67227;SDS011;54139;42.616;23.748;2023-04-21T01:20:28;19.73;;;17.65;;
67227;SDS011;54139;42.616;23.748;2023-04-21T01:22:55;19.88;;;17.95;;
67227;SDS011;54139;42.616;23.748;2023-04-21T01:25:20;21.63;;;18.77;;
67227;SDS011;54139;42.616;23.748;2023-04-21T01:27:52;19.27;;;17.25;;
67227;SDS011;54139;42.616;23.748;2023-04-21T01:30:17;21.05;;;18.85;;
67227;SDS011;54139;42.616;23.748;2023-04-21T01:32:42;23.08;;;20.75;;
67227;SDS011;54139;42.616;23.748;2023-04-21T01:35:08;24.90;;;20.85;;
67227;SDS011;54139;42.616;23.748;2023-04-21T01:37:34;25.55;;;20.98;;
67227;SDS011;54139;42.616;23.748;2023-04-21T01:40:00;28.67;;;22.75;;
67227;SDS011;54139;42.616;23.748;2023-04-21T01:42:29;22.83;;;20.48;;
67227;SDS011;54139;42.616;23.748;2023-04-21T01:47:30;23.98;;;21.05;;
67227;SDS011;54139;42.616;23.748;2023-04-21T01:49:55;21.48;;;19.15;;
67227;SDS011;54139;42.616;23.748;2023-04-21T01:52:20;24.33;;;20.63;;
67227;SDS011;54139;42.616;23.748;2023-04-21T01:54:46;25.60;;;20.30;;
67227;SDS011;54139;42.616;23.748;2023-04-21T01:57:11;32.90;;;23.50;;
67227;SDS011;54139;42.616;23.748;2023-04-21T01:59:37;25.90;;;22.52;;
67227;SDS011;54139;42.616;23.748;2023-04-21T02:02:03;21.95;;;19.55;;
67227;SDS011;54139;42.616;23.748;2023-04-21T02:04:28;23.23;;;20.73;;
67227;SDS011;54139;42.616;23.748;2023-04-21T02:06:53;21.13;;;18.80;;
67227;SDS011;54139;42.616;23.748;2023-04-21T02:09:19;23.65;;;19.10;;
67227;SDS011;54139;42.616;23.748;2023-04-21T02:11:44;20.98;;;18.67;;
67227;SDS011;54139;42.616;23.748;2023-04-21T02:14:10;26.75;;;18.98;;
67227;SDS011;54139;42.616;23.748;2023-04-21T02:16:35;21.75;;;19.27;;
67227;SDS011;54139;42.616;23.748;2023-04-21T02:19:03;20.10;;;17.30;;
67227;SDS011;54139;42.616;23.748;2023-04-21T02:21:30;20.75;;;18.52;;
67227;SDS011;54139;42.616;23.748;2023-04-21T02:23:56;20.90;;;18.48;;
67227;SDS011;54139;42.616;23.748;2023-04-21T02:26:21;22.27;;;18.58;;
67227;SDS011;54139;42.616;23.748;2023-04-21T02:28:47;20.02;;;17.92;;
67227;SDS011;54139;42.616;23.748;2023-04-21T02:31:14;22.50;;;19.88;;
67227;SDS011;54139;42.616;23.748;2023-04-21T02:33:39;26.58;;;20.52;;
67227;SDS011;54139;42.616;23.748;2023-04-21T02:36:05;23.17;;;18.52;;
67227;SDS011;54139;42.616;23.748;2023-04-21T02:38:30;22.23;;;19.83;;
67227;SDS011;54139;42.616;23.748;2023-04-21T02:40:56;23.80;;;20.45;;
67227;SDS011;54139;42.616;23.748;2023-04-21T02:43:22;24.15;;;19.35;;
67227;SDS011;54139;42.616;23.748;2023-04-21T02:45:47;24.40;;;19.33;;
67227;SDS011;54139;42.616;23.748;2023-04-21T02:48:12;22.13;;;17.73;;
67227;SDS011;54139;42.616;23.748;2023-04-21T02:50:46;21.45;;;19.15;;
67227;SDS011;54139;42.616;23.748;2023-04-21T02:53:12;25.13;;;18.58;;
67227;SDS011;54139;42.616;23.748;2023-04-21T02:55:37;27.00;;;21.75;;
67227;SDS011;54139;42.616;23.748;2023-04-21T02:58:03;20.63;;;16.90;;
67227;SDS011;54139;42.616;23.748;2023-04-21T03:00:28;25.52;;;18.98;;
67227;SDS011;54139;42.616;23.748;2023-04-21T03:02:54;32.85;;;22.63;;
67227;SDS011;54139;42.616;23.748;2023-04-21T03:05:20;24.98;;;20.63;;
67227;SDS011;54139;42.616;23.748;2023-04-21T03:07:45;28.00;;;20.25;;
67227;SDS011;54139;42.616;23.748;2023-04-21T03:10:10;24.65;;;18.88;;
67227;SDS011;54139;42.616;23.748;2023-04-21T03:12:36;27.58;;;21.55;;
67227;SDS011;54139;42.616;23.748;2023-04-21T03:15:02;22.48;;;20.08;;
67227;SDS011;54139;42.616;23.748;2023-04-21T03:17:27;27.35;;;24.02;;
67227;SDS011;54139;42.616;23.748;2023-04-21T03:19:53;28.58;;;23.60;;
67227;SDS011;54139;42.616;23.748;2023-04-21T03:22:18;27.30;;;20.85;;
67227;SDS011;54139;42.616;23.748;2023-04-21T03:24:44;29.23;;;23.23;;
67227;SDS011;54139;42.616;23.748;2023-04-21T03:27:10;27.75;;;21.15;;
67227;SDS011;54139;42.616;23.748;2023-04-21T03:29:35;28.65;;;23.17;;
67227;SDS011;54139;42.616;23.748;2023-04-21T03:32:00;25.55;;;20.83;;
67227;SDS011;54139;42.616;23.748;2023-04-21T03:34:26;27.95;;;21.58;;
67227;SDS011;54139;42.616;23.748;2023-04-21T03:36:51;28.00;;;19.33;;
67227;SDS011;54139;42.616;23.748;2023-04-21T03:39:17;31.88;;;25.15;;
67227;SDS011;54139;42.616;23.748;2023-04-21T03:41:42;26.40;;;23.58;;
67227;SDS011;54139;42.616;23.748;2023-04-21T03:44:07;25.40;;;21.83;;
67227;SDS011;54139;42.616;23.748;2023-04-21T03:46:33;25.48;;;20.00;;
67227;SDS011;54139;42.616;23.748;2023-04-21T03:48:58;30.00;;;23.90;;
67227;SDS011;54139;42.616;23.748;2023-04-21T03:51:24;29.27;;;24.75;;
67227;SDS011;54139;42.616;23.748;2023-04-21T03:53:51;37.42;;;23.45;;
67227;SDS011;54139;42.616;23.748;2023-04-21T03:56:16;28.95;;;23.10;;
67227;SDS011;54139;42.616;23.748;2023-04-21T03:58:42;26.67;;;21.17;;
67227;SDS011;54139;42.616;23.748;2023-04-21T04:01:07;20.88;;;18.73;;
67227;SDS011;54139;42.616;23.748;2023-04-21T04:03:32;22.83;;;18.55;;
67227;SDS011;54139;42.616;23.748;2023-04-21T04:05:58;18.50;;;16.00;;
67227;SDS011;54139;42.616;23.748;2023-04-21T04:08:24;17.42;;;15.45;;
67227;SDS011;54139;42.616;23.748;2023-04-21T04:10:49;17.23;;;15.30;;
67227;SDS011;54139;42.616;23.748;2023-04-21T04:13:14;19.23;;;15.57;;
67227;SDS011;54139;42.616;23.748;2023-04-21T04:15:40;19.70;;;17.60;;
67227;SDS011;54139;42.616;23.748;2023-04-21T04:18:05;18.95;;;17.02;;
67227;SDS011;54139;42.616;23.748;2023-04-21T04:20:31;23.33;;;19.08;;
67227;SDS011;54139;42.616;23.748;2023-04-21T04:22:56;16.23;;;14.63;;
67227;SDS011;54139;42.616;23.748;2023-04-21T04:25:21;19.63;;;17.58;;
67227;SDS011;54139;42.616;23.748;2023-04-21T04:27:47;15.43;;;13.82;;
67227;SDS011;54139;42.616;23.748;2023-04-21T04:30:13;16.70;;;15.00;;
67227;SDS011;54139;42.616;23.748;2023-04-21T04:32:39;15.75;;;14.13;;
67227;SDS011;54139;42.616;23.748;2023-04-21T04:35:05;14.52;;;13.13;;
67227;SDS011;54139;42.616;23.748;2023-04-21T04:37:30;16.73;;;15.13;;
67227;SDS011;54139;42.616;23.748;2023-04-21T04:39:58;16.10;;;14.63;;
67227;SDS011;54139;42.616;23.748;2023-04-21T04:42:23;13.13;;;11.93;;
67227;SDS011;54139;42.616;23.748;2023-04-21T04:44:52;12.65;;;11.43;;
67227;SDS011;54139;42.616;23.748;2023-04-21T04:47:17;13.00;;;11.65;;
67227;SDS011;54139;42.616;23.748;2023-04-21T04:49:42;12.25;;;11.10;;
67227;SDS011;54139;42.616;23.748;2023-04-21T04:52:08;14.10;;;11.15;;
67227;SDS011;54139;42.616;23.748;2023-04-21T04:54:33;12.32;;;10.70;;
67227;SDS011;54139;42.616;23.748;2023-04-21T04:56:58;12.40;;;11.23;;
67227;SDS011;54139;42.616;23.748;2023-04-21T04:59:24;13.50;;;12.18;;
67227;SDS011;54139;42.616;23.748;2023-04-21T05:01:50;14.20;;;12.82;;
67227;SDS011;54139;42.616;23.748;2023-04-21T05:04:16;13.38;;;12.35;;
67227;SDS011;54139;42.616;23.748;2023-04-21T05:06:41;13.70;;;12.48;;
67227;SDS011;54139;42.616;23.748;2023-04-21T05:09:07;13.15;;;11.80;;
67227;SDS011;54139;42.616;23.748;2023-04-21T05:11:32;15.32;;;12.93;;
67227;SDS011;54139;42.616;23.748;2023-04-21T05:13:57;13.80;;;11.73;;
67227;SDS011;54139;42.616;23.748;2023-04-21T05:16:23;11.68;;;10.50;;
67227;SDS011;54139;42.616;23.748;2023-04-21T05:18:48;10.98;;;9.88;;
67227;SDS011;54139;42.616;23.748;2023-04-21T05:21:24;10.40;;;9.40;;
67227;SDS011;54139;42.616;23.748;2023-04-21T05:23:51;9.65;;;8.70;;
67227;SDS011;54139;42.616;23.748;2023-04-21T05:26:17;12.75;;;10.93;;
67227;SDS011;54139;42.616;23.748;2023-04-21T05:28:42;14.00;;;11.88;;
67227;SDS011;54139;42.616;23.748;2023-04-21T05:31:07;11.90;;;10.90;;
67227;SDS011;54139;42.616;23.748;2023-04-21T05:33:32;14.23;;;12.63;;
67227;SDS011;54139;42.616;23.748;2023-04-21T05:35:58;12.57;;;11.47;;
67227;SDS011;54139;42.616;23.748;2023-04-21T05:38:23;10.60;;;9.55;;
67227;SDS011;54139;42.616;23.748;2023-04-21T05:40:55;11.13;;;10.03;;
67227;SDS011;54139;42.616;23.748;2023-04-21T05:43:20;10.32;;;9.38;;
67227;SDS011;54139;42.616;23.748;2023-04-21T05:45:46;10.07;;;9.18;;
67227;SDS011;54139;42.616;23.748;2023-04-21T05:48:11;7.88;;;7.28;;
67227;SDS011;54139;42.616;23.748;2023-04-21T05:50:37;8.30;;;7.70;;
67227;SDS011;54139;42.616;23.748;2023-04-21T05:53:02;8.20;;;7.60;;
67227;SDS011;54139;42.616;23.748;2023-04-21T05:55:27;8.47;;;7.87;;
67227;SDS011;54139;42.616;23.748;2023-04-21T05:57:52;8.40;;;7.73;;
67227;SDS011;54139;42.616;23.748;2023-04-21T06:00:18;7.77;;;7.17;;
67227;SDS011;54139;42.616;23.748;2023-04-21T06:02:43;10.98;;;8.85;;
67227;SDS011;54139;42.616;23.748;2023-04-21T06:05:10;9.83;;;9.00;;
67227;SDS011;54139;42.616;23.748;2023-04-21T06:07:35;9.30;;;8.50;;
67227;SDS011;54139;42.616;23.748;2023-04-21T06:10:01;8.60;;;7.65;;
67227;SDS011;54139;42.616;23.748;2023-04-21T06:12:26;7.40;;;6.80;;
67227;SDS011;54139;42.616;23.748;2023-04-21T06:14:52;8.30;;;7.57;;
67227;SDS011;54139;42.616;23.748;2023-04-21T06:17:21;8.07;;;7.47;;
67227;SDS011;54139;42.616;23.748;2023-04-21T06:19:46;10.55;;;8.43;;
67227;SDS011;54139;42.616;23.748;2023-04-21T06:22:16;9.32;;;8.63;;
67227;SDS011;54139;42.616;23.748;2023-04-21T06:24:42;8.90;;;8.07;;
67227;SDS011;54139;42.616;23.748;2023-04-21T06:27:10;18.23;;;9.67;;
67227;SDS011;54139;42.616;23.748;2023-04-21T06:29:38;10.68;;;9.70;;
67227;SDS011;54139;42.616;23.748;2023-04-21T06:32:04;10.20;;;9.20;;
67227;SDS011;54139;42.616;23.748;2023-04-21T06:34:29;9.20;;;8.10;;
67227;SDS011;54139;42.616;23.748;2023-04-21T06:36:54;9.73;;;8.82;;
67227;SDS011;54139;42.616;23.748;2023-04-21T06:39:20;9.53;;;8.73;;
67227;SDS011;54139;42.616;23.748;2023-04-21T06:41:45;8.40;;;7.70;;
67227;SDS011;54139;42.616;23.748;2023-04-21T06:44:10;8.35;;;7.57;;
67227;SDS011;54139;42.616;23.748;2023-04-21T06:46:39;9.77;;;8.05;;
67227;SDS011;54139;42.616;23.748;2023-04-21T06:49:05;7.82;;;7.22;;
67227;SDS011;54139;42.616;23.748;2023-04-21T06:51:30;7.40;;;6.63;;
67227;SDS011;54139;42.616;23.748;2023-04-21T06:53:56;7.78;;;6.88;;
67227;SDS011;54139;42.616;23.748;2023-04-21T06:56:21;8.37;;;7.70;;
67227;SDS011;54139;42.616;23.748;2023-04-21T06:58:46;10.05;;;7.22;;
67227;SDS011;54139;42.616;23.748;2023-04-21T07:01:12;9.90;;;7.07;;
67227;SDS011;54139;42.616;23.748;2023-04-21T07:03:37;7.75;;;6.97;;
67227;SDS011;54139;42.616;23.748;2023-04-21T07:06:02;8.00;;;7.30;;
67227;SDS011;54139;42.616;23.748;2023-04-21T07:08:28;8.48;;;7.82;;
67227;SDS011;54139;42.616;23.748;2023-04-21T07:10:53;7.20;;;6.60;;
67227;SDS011;54139;42.616;23.748;2023-04-21T07:13:18;9.40;;;7.67;;
67227;SDS011;54139;42.616;23.748;2023-04-21T07:15:44;8.83;;;7.60;;
67227;SDS011;54139;42.616;23.748;2023-04-21T07:18:09;9.03;;;8.23;;
67227;SDS011;54139;42.616;23.748;2023-04-21T07:20:34;10.00;;;9.07;;
67227;SDS011;54139;42.616;23.748;2023-04-21T07:23:00;10.90;;;9.80;;
67227;SDS011;54139;42.616;23.748;2023-04-21T07:25:25;9.73;;;8.90;;
67227;SDS011;54139;42.616;23.748;2023-04-21T07:27:50;12.97;;;9.50;;
67227;SDS011;54139;42.616;23.748;2023-04-21T07:30:15;10.87;;;9.77;;
67227;SDS011;54139;42.616;23.748;2023-04-21T07:32:41;10.90;;;9.50;;
67227;SDS011;54139;42.616;23.748;2023-04-21T07:35:06;10.30;;;9.27;;
67227;SDS011;54139;42.616;23.748;2023-04-21T07:37:31;11.10;;;10.10;;
67227;SDS011;54139;42.616;23.748;2023-04-21T07:39:57;10.82;;;9.98;;
67227;SDS011;54139;42.616;23.748;2023-04-21T07:42:22;11.57;;;10.35;;
67227;SDS011;54139;42.616;23.748;2023-04-21T07:44:48;10.77;;;9.88;;
67227;SDS011;54139;42.616;23.748;2023-04-21T07:47:13;10.80;;;9.80;;
67227;SDS011;54139;42.616;23.748;2023-04-21T07:49:39;11.57;;;10.52;;
67227;SDS011;54139;42.616;23.748;2023-04-21T07:52:04;10.95;;;9.93;;
67227;SDS011;54139;42.616;23.748;2023-04-21T07:54:29;12.43;;;9.68;;
67227;SDS011;54139;42.616;23.748;2023-04-21T07:56:55;10.40;;;9.50;;
67227;SDS011;54139;42.616;23.748;2023-04-21T07:59:20;9.55;;;8.65;;
67227;SDS011;54139;42.616;23.748;2023-04-21T08:01:45;8.80;;;8.10;;
67227;SDS011;54139;42.616;23.748;2023-04-21T08:04:11;8.20;;;7.50;;
67227;SDS011;54139;42.616;23.748;2023-04-21T08:06:36;8.50;;;7.80;;
67227;SDS011;54139;42.616;23.748;2023-04-21T08:09:01;9.02;;;8.23;;
67227;SDS011;54139;42.616;23.748;2023-04-21T08:11:27;9.88;;;7.80;;
67227;SDS011;54139;42.616;23.748;2023-04-21T08:13:53;10.57;;;8.82;;
67227;SDS011;54139;42.616;23.748;2023-04-21T08:16:18;10.07;;;9.13;;
67227;SDS011;54139;42.616;23.748;2023-04-21T08:18:43;8.48;;;7.63;;
67227;SDS011;54139;42.616;23.748;2023-04-21T08:21:08;8.65;;;7.78;;
67227;SDS011;54139;42.616;23.748;2023-04-21T08:23:34;7.28;;;6.60;;
67227;SDS011;54139;42.616;23.748;2023-04-21T08:26:00;9.82;;;7.88;;
67227;SDS011;54139;42.616;23.748;2023-04-21T08:28:26;8.45;;;7.68;;
67227;SDS011;54139;42.616;23.748;2023-04-21T08:30:51;7.33;;;6.73;;
67227;SDS011;54139;42.616;23.748;2023-04-21T08:33:16;8.17;;;7.33;;
67227;SDS011;54139;42.616;23.748;2023-04-21T08:35:41;7.33;;;6.00;;
67227;SDS011;54139;42.616;23.748;2023-04-21T08:38:07;9.17;;;6.63;;
67227;SDS011;54139;42.616;23.748;2023-04-21T08:40:33;10.65;;;6.63;;
67227;SDS011;54139;42.616;23.748;2023-04-21T08:43:00;9.52;;;7.25;;
67227;SDS011;54139;42.616;23.748;2023-04-21T08:45:26;7.07;;;6.15;;
67227;SDS011;54139;42.616;23.748;2023-04-21T08:47:55;7.35;;;6.75;;
67227;SDS011;54139;42.616;23.748;2023-04-21T08:50:20;7.72;;;7.05;;
67227;SDS011;54139;42.616;23.748;2023-04-21T08:52:49;7.53;;;6.93;;
67227;SDS011;54139;42.616;23.748;2023-04-21T08:55:14;6.73;;;6.23;;
67227;SDS011;54139;42.616;23.748;2023-04-21T08:57:40;6.80;;;6.15;;
67227;SDS011;54139;42.616;23.748;2023-04-21T09:00:05;7.20;;;5.70;;
67227;SDS011;54139;42.616;23.748;2023-04-21T09:02:31;7.32;;;6.10;;
67227;SDS011;54139;42.616;23.748;2023-04-21T09:04:56;7.00;;;6.40;;
67227;SDS011;54139;42.616;23.748;2023-04-21T09:09:55;6.30;;;5.68;;
67227;SDS011;54139;42.616;23.748;2023-04-21T09:12:20;5.85;;;5.35;;
67227;SDS011;54139;42.616;23.748;2023-04-21T09:14:46;5.45;;;5.03;;
67227;SDS011;54139;42.616;23.748;2023-04-21T09:17:11;5.53;;;5.13;;
67227;SDS011;54139;42.616;23.748;2023-04-21T09:19:36;5.00;;;4.60;;
67227;SDS011;54139;42.616;23.748;2023-04-21T09:22:02;5.35;;;4.45;;
67227;SDS011;54139;42.616;23.748;2023-04-21T09:24:27;5.22;;;4.72;;
67227;SDS011;54139;42.616;23.748;2023-04-21T09:26:53;4.80;;;4.35;;
67227;SDS011;54139;42.616;23.748;2023-04-21T09:29:22;5.35;;;3.67;;
67227;SDS011;54139;42.616;23.748;2023-04-21T09:31:48;5.35;;;3.58;;
67227;SDS011;54139;42.616;23.748;2023-04-21T09:34:20;4.82;;;4.25;;
67227;SDS011;54139;42.616;23.748;2023-04-21T09:36:48;4.20;;;3.80;;
67227;SDS011;54139;42.616;23.748;2023-04-21T09:39:22;4.35;;;4.05;;
67227;SDS011;54139;42.616;23.748;2023-04-21T09:41:48;6.55;;;4.88;;
67227;SDS011;54139;42.616;23.748;2023-04-21T09:44:13;6.37;;;4.83;;
67227;SDS011;54139;42.616;23.748;2023-04-21T09:46:38;4.97;;;4.57;;
67227;SDS011;54139;42.616;23.748;2023-04-21T09:49:07;6.65;;;4.65;;
67227;SDS011;54139;42.616;23.748;2023-04-21T09:51:34;6.30;;;4.53;;
67227;SDS011;54139;42.616;23.748;2023-04-21T09:54:02;5.22;;;4.82;;
67227;SDS011;54139;42.616;23.748;2023-04-21T09:56:32;4.70;;;4.03;;
67227;SDS011;54139;42.616;23.748;2023-04-21T09:59:00;4.70;;;3.95;;
67227;SDS011;54139;42.616;23.748;2023-04-21T10:01:26;4.57;;;4.18;;
67227;SDS011;54139;42.616;23.748;2023-04-21T10:03:51;4.13;;;3.72;;
67227;SDS011;54139;42.616;23.748;2023-04-21T10:06:17;4.55;;;4.20;;
67227;SDS011;54139;42.616;23.748;2023-04-21T10:08:43;4.50;;;4.10;;
67227;SDS011;54139;42.616;23.748;2023-04-21T10:11:08;4.05;;;3.72;;
67227;SDS011;54139;42.616;23.748;2023-04-21T10:13:34;5.65;;;4.65;;
67227;SDS011;54139;42.616;23.748;2023-04-21T10:16:04;4.82;;;4.43;;
67227;SDS011;54139;42.616;23.748;2023-04-21T10:18:31;4.57;;;3.80;;
67227;SDS011;54139;42.616;23.748;2023-04-21T10:26:02;5.10;;;3.97;;
67227;SDS011;54139;42.616;23.748;2023-04-21T10:33:40;5.15;;;4.75;;
67227;SDS011;54139;42.616;23.748;2023-04-21T10:36:05;5.77;;;4.50;;
67227;SDS011;54139;42.616;23.748;2023-04-21T10:38:41;9.10;;;4.85;;
67227;SDS011;54139;42.616;23.748;2023-04-21T10:41:25;5.78;;;4.90;;
67227;SDS011;54139;42.616;23.748;2023-04-21T10:43:56;6.85;;;5.25;;
67227;SDS011;54139;42.616;23.748;2023-04-21T10:46:34;5.10;;;4.65;;
67227;SDS011;54139;42.616;23.748;2023-04-21T10:49:42;5.53;;;4.95;;
67227;SDS011;54139;42.616;23.748;2023-04-21T10:54:23;8.25;;;4.80;;
67227;SDS011;54139;42.616;23.748;2023-04-21T10:56:57;4.75;;;4.32;;
67227;SDS011;54139;42.616;23.748;2023-04-21T10:59:23;5.70;;;4.90;;
67227;SDS011;54139;42.616;23.748;2023-04-21T11:01:48;5.00;;;4.50;;
67227;SDS011;54139;42.616;23.748;2023-04-21T11:04:14;8.00;;;4.35;;
67227;SDS011;54139;42.616;23.748;2023-04-21T11:06:39;4.30;;;3.90;;
67227;SDS011;54139;42.616;23.748;2023-04-21T11:09:05;4.43;;;4.05;;
67227;SDS011;54139;42.616;23.748;2023-04-21T11:11:30;5.22;;;3.60;;
67227;SDS011;54139;42.616;23.748;2023-04-21T11:13:58;6.95;;;5.88;;
67227;SDS011;54139;42.616;23.748;2023-04-21T11:16:23;4.38;;;3.85;;
67227;SDS011;54139;42.616;23.748;2023-04-21T11:18:49;4.80;;;3.88;;
67227;SDS011;54139;42.616;23.748;2023-04-21T11:21:16;7.78;;;3.65;;
67227;SDS011;54139;42.616;23.748;2023-04-21T11:23:55;6.13;;;3.40;;
67227;SDS011;54139;42.616;23.748;2023-04-21T11:26:30;5.80;;;3.75;;
67227;SDS011;54139;42.616;23.748;2023-04-21T11:28:58;4.00;;;3.67;;
67227;SDS011;54139;42.616;23.748;2023-04-21T11:31:27;4.25;;;3.15;;
67227;SDS011;54139;42.616;23.748;2023-04-21T11:33:54;3.15;;;2.80;;
67227;SDS011;54139;42.616;23.748;2023-04-21T11:36:20;3.00;;;2.70;;
67227;SDS011;54139;42.616;23.748;2023-04-21T11:38:45;4.10;;;2.80;;
67227;SDS011;54139;42.616;23.748;2023-04-21T11:41:11;4.05;;;3.22;;
67227;SDS011;54139;42.616;23.748;2023-04-21T11:43:36;4.78;;;3.35;;
67227;SDS011;54139;42.616;23.748;2023-04-21T11:49:01;3.70;;;2.95;;
67227;SDS011;54139;42.616;23.748;2023-04-21T11:53:58;6.75;;;4.18;;
67227;SDS011;54139;42.616;23.748;2023-04-21T11:56:24;5.68;;;3.90;;
67227;SDS011;54139;42.616;23.748;2023-04-21T11:58:49;4.47;;;3.30;;
67227;SDS011;54139;42.616;23.748;2023-04-21T12:01:16;4.30;;;3.90;;
67227;SDS011;54139;42.616;23.748;2023-04-21T12:03:41;4.47;;;3.85;;
67227;SDS011;54139;42.616;23.748;2023-04-21T12:06:07;3.97;;;3.65;;
67227;SDS011;54139;42.616;23.748;2023-04-21T12:08:32;3.88;;;3.58;;
67227;SDS011;54139;42.616;23.748;2023-04-21T12:10:58;3.90;;;3.40;;
67227;SDS011;54139;42.616;23.748;2023-04-21T12:13:26;5.10;;;3.60;;
67227;SDS011;54139;42.616;23.748;2023-04-21T12:15:52;3.72;;;3.40;;
67227;SDS011;54139;42.616;23.748;2023-04-21T12:18:17;4.00;;;3.10;;
67227;SDS011;54139;42.616;23.748;2023-04-21T12:20:49;3.38;;;3.08;;
67227;SDS011;54139;42.616;23.748;2023-04-21T12:23:15;3.22;;;2.75;;
67227;SDS011;54139;42.616;23.748;2023-04-21T12:25:40;3.25;;;2.05;;
67227;SDS011;54139;42.616;23.748;2023-04-21T12:28:06;5.43;;;2.50;;
67227;SDS011;54139;42.616;23.748;2023-04-21T12:30:32;3.38;;;2.50;;
67227;SDS011;54139;42.616;23.748;2023-04-21T12:32:57;2.72;;;2.38;;
67227;SDS011;54139;42.616;23.748;2023-04-21T12:35:22;4.17;;;2.60;;
67227;SDS011;54139;42.616;23.748;2023-04-21T12:37:48;2.40;;;2.20;;
67227;SDS011;54139;42.616;23.748;2023-04-21T12:40:13;2.42;;;2.17;;
67227;SDS011;54139;42.616;23.748;2023-04-21T12:42:38;1.83;;;1.70;;
67227;SDS011;54139;42.616;23.748;2023-04-21T12:45:04;1.80;;;1.70;;
67227;SDS011;54139;42.616;23.748;2023-04-21T12:47:29;2.10;;;1.90;;
67227;SDS011;54139;42.616;23.748;2023-04-21T12:49:55;6.68;;;1.80;;
67227;SDS011;54139;42.616;23.748;2023-04-21T12:52:20;2.20;;;1.80;;
67227;SDS011;54139;42.616;23.748;2023-04-21T12:54:46;2.22;;;1.90;;
67227;SDS011;54139;42.616;23.748;2023-04-21T12:57:11;5.35;;;2.10;;
67227;SDS011;54139;42.616;23.748;2023-04-21T12:59:37;3.17;;;2.35;;
67227;SDS011;54139;42.616;23.748;2023-04-21T13:02:02;2.45;;;2.25;;
67227;SDS011;54139;42.616;23.748;2023-04-21T13:04:27;2.93;;;2.50;;
67227;SDS011;54139;42.616;23.748;2023-04-21T13:06:53;2.13;;;1.92;;
67227;SDS011;54139;42.616;23.748;2023-04-21T13:09:18;2.33;;;2.13;;
67227;SDS011;54139;42.616;23.748;2023-04-21T13:11:43;2.75;;;2.22;;
67227;SDS011;54139;42.616;23.748;2023-04-21T13:14:09;2.10;;;1.95;;
67227;SDS011;54139;42.616;23.748;2023-04-21T13:16:34;4.20;;;2.28;;
67227;SDS011;54139;42.616;23.748;2023-04-21T13:19:00;3.05;;;2.85;;
67227;SDS011;54139;42.616;23.748;2023-04-21T13:21:25;3.35;;;3.15;;
67227;SDS011;54139;42.616;23.748;2023-04-21T13:23:50;3.40;;;3.20;;
67227;SDS011;54139;42.616;23.748;2023-04-21T13:26:16;4.03;;;3.72;;
67227;SDS011;54139;42.616;23.748;2023-04-21T13:28:41;3.78;;;3.45;;
67227;SDS011;54139;42.616;23.748;2023-04-21T13:31:07;4.85;;;3.63;;
67227;SDS011;54139;42.616;23.748;2023-04-21T13:33:32;6.13;;;3.47;;
67227;SDS011;54139;42.616;23.748;2023-04-21T13:35:59;3.85;;;3.30;;
67227;SDS011;54139;42.616;23.748;2023-04-21T13:38:25;3.22;;;2.92;;
67227;SDS011;54139;42.616;23.748;2023-04-21T13:40:50;3.43;;;2.50;;
67227;SDS011;54139;42.616;23.748;2023-04-21T13:43:15;2.83;;;2.60;;
67227;SDS011;54139;42.616;23.748;2023-04-21T13:45:40;3.65;;;2.67;;
67227;SDS011;54139;42.616;23.748;2023-04-21T13:48:06;3.90;;;2.50;;
67227;SDS011;54139;42.616;23.748;2023-04-21T13:50:31;2.50;;;2.30;;
67227;SDS011;54139;42.616;23.748;2023-04-21T13:52:56;3.30;;;2.35;;
67227;SDS011;54139;42.616;23.748;2023-04-21T13:55:22;2.67;;;2.47;;
67227;SDS011;54139;42.616;23.748;2023-04-21T13:57:47;2.85;;;2.60;;
67227;SDS011;54139;42.616;23.748;2023-04-21T14:00:12;3.13;;;2.70;;
67227;SDS011;54139;42.616;23.748;2023-04-21T14:02:38;4.03;;;2.40;;
67227;SDS011;54139;42.616;23.748;2023-04-21T14:05:04;6.85;;;3.22;;
67227;SDS011;54139;42.616;23.748;2023-04-21T14:07:29;5.15;;;2.65;;
67227;SDS011;54139;42.616;23.748;2023-04-21T14:09:54;4.20;;;2.78;;
67227;SDS011;54139;42.616;23.748;2023-04-21T14:12:20;3.00;;;2.40;;
67227;SDS011;54139;42.616;23.748;2023-04-21T14:14:45;4.72;;;2.53;;
67227;SDS011;54139;42.616;23.748;2023-04-21T14:17:11;2.90;;;2.58;;
67227;SDS011;54139;42.616;23.748;2023-04-21T14:19:36;2.88;;;2.65;;
67227;SDS011;54139;42.616;23.748;2023-04-21T14:22:02;3.57;;;2.53;;
67227;SDS011;54139;42.616;23.748;2023-04-21T14:24:27;2.58;;;2.38;;
67227;SDS011;54139;42.616;23.748;2023-04-21T14:26:54;3.95;;;2.65;;
67227;SDS011;54139;42.616;23.748;2023-04-21T14:29:21;3.00;;;2.72;;
67227;SDS011;54139;42.616;23.748;2023-04-21T14:31:46;3.28;;;2.70;;
67227;SDS011;54139;42.616;23.748;2023-04-21T14:34:11;2.60;;;2.40;;
67227;SDS011;54139;42.616;23.748;2023-04-21T14:36:37;6.93;;;3.00;;
67227;SDS011;54139;42.616;23.748;2023-04-21T14:39:02;3.42;;;3.10;;
67227;SDS011;54139;42.616;23.748;2023-04-21T14:41:28;4.28;;;2.60;;
67227;SDS011;54139;42.616;23.748;2023-04-21T14:43:53;3.55;;;3.25;;